createdAt,value
2022-10-08T00:01:57.787Z,16.20
2022-10-08T00:04:26.726Z,16.30
2022-10-08T00:06:58.526Z,16.20
2022-10-08T00:09:29.413Z,16.30
2022-10-08T00:12:02.545Z,16.20
2022-10-08T00:14:31.344Z,16.20
2022-10-08T00:17:00.162Z,16.20
2022-10-08T00:19:29.325Z,16.20
2022-10-08T00:21:59.074Z,16.20
2022-10-08T00:24:43.586Z,16.20
2022-10-08T00:27:13.424Z,16.20
2022-10-08T00:29:44.604Z,16.10
2022-10-08T00:32:13.438Z,16.20
2022-10-08T00:34:43.946Z,16.10
2022-10-08T00:37:25.780Z,16.20
2022-10-08T00:39:54.197Z,16.20
2022-10-08T00:42:22.791Z,16.10
2022-10-08T00:44:54.850Z,16.20
2022-10-08T00:47:40.214Z,16.20
2022-10-08T00:50:22.539Z,16.20
2022-10-08T00:53:01.283Z,16.10
2022-10-08T00:55:31.010Z,16.20
2022-10-08T00:58:12.332Z,16.20
2022-10-08T01:00:45.327Z,16.20
2022-10-08T01:03:14.241Z,16.10
2022-10-08T01:05:53.033Z,16.10
2022-10-08T01:08:30.292Z,16.10
2022-10-08T01:11:08.003Z,16.10
2022-10-08T01:13:48.114Z,16.10
2022-10-08T01:16:26.266Z,16.10
2022-10-08T01:19:04.062Z,16.10
2022-10-08T01:21:43.509Z,16.10
2022-10-08T01:24:46.260Z,16.10
2022-10-08T01:27:35.879Z,16.20
2022-10-08T01:30:18.994Z,16.10
2022-10-08T01:32:52.928Z,16.10
2022-10-08T01:35:25.660Z,16.10
2022-10-08T01:37:56.927Z,16.10
2022-10-08T01:40:30.463Z,16.10
2022-10-08T01:43:01.870Z,16.10
2022-10-08T01:45:34.862Z,16.10
2022-10-08T01:48:08.284Z,16.10
2022-10-08T01:50:42.383Z,16.10
2022-10-08T01:53:16.361Z,16.10
2022-10-08T01:55:48.945Z,16.00
2022-10-08T01:58:23.884Z,16.00
2022-10-08T02:00:53.988Z,16.10
2022-10-08T02:03:22.536Z,16.10
2022-10-08T02:05:55.688Z,16.20
2022-10-08T02:08:24.762Z,16.10
2022-10-08T02:10:53.892Z,16.00
2022-10-08T02:13:24.170Z,16.00
2022-10-08T02:16:01.220Z,16.00
2022-10-08T02:18:38.546Z,16.10
2022-10-08T02:21:13.100Z,16.00
2022-10-08T02:23:45.870Z,16.00
2022-10-08T02:26:21.827Z,16.00
2022-10-08T02:28:57.305Z,16.00
2022-10-08T02:31:32.054Z,16.00
2022-10-08T02:34:08.198Z,16.00
2022-10-08T02:36:40.107Z,16.00
2022-10-08T02:39:10.739Z,15.90
2022-10-08T02:41:43.358Z,15.90
2022-10-08T02:44:17.781Z,16.00
2022-10-08T02:46:50.868Z,16.00
2022-10-08T02:49:25.053Z,16.00
2022-10-08T02:51:55.355Z,16.00
2022-10-08T02:54:24.761Z,16.00
2022-10-08T02:56:56.274Z,15.90
2022-10-08T02:59:26.727Z,15.90
2022-10-08T03:02:00.135Z,16.00
2022-10-08T03:04:33.520Z,16.00
2022-10-08T03:07:02.322Z,15.90
2022-10-08T03:09:38.090Z,15.90
2022-10-08T03:12:07.597Z,15.90
2022-10-08T03:14:40.962Z,15.90
2022-10-08T03:17:11.723Z,15.90
2022-10-08T03:19:40.055Z,16.00
2022-10-08T03:22:09.076Z,15.90
2022-10-08T03:24:37.652Z,15.90
2022-10-08T03:27:06.031Z,16.00
2022-10-08T03:29:34.465Z,16.00
2022-10-08T03:32:04.084Z,16.00
2022-10-08T03:34:33.721Z,16.00
2022-10-08T03:37:02.087Z,16.00
2022-10-08T03:39:30.958Z,16.10
2022-10-08T03:41:59.230Z,16.10
2022-10-08T03:44:27.609Z,16.10
2022-10-08T03:46:57.399Z,16.10
2022-10-08T03:49:27.143Z,16.10
2022-10-08T03:51:55.475Z,16.10
2022-10-08T03:54:24.250Z,16.10
2022-10-08T03:56:52.570Z,16.10
2022-10-08T03:59:21.322Z,16.10
2022-10-08T04:01:49.898Z,16.10
2022-10-08T04:04:23.058Z,16.10
2022-10-08T04:06:55.928Z,16.00
2022-10-08T04:09:24.410Z,16.20
2022-10-08T04:11:52.838Z,16.10
2022-10-08T04:14:21.249Z,16.10
2022-10-08T04:16:49.621Z,16.20
2022-10-08T04:19:18.348Z,16.20
2022-10-08T04:21:47.275Z,16.20
2022-10-08T04:24:17.219Z,16.30
2022-10-08T04:26:45.668Z,16.20
2022-10-08T04:29:14.114Z,16.30
2022-10-08T04:31:43.829Z,16.30
2022-10-08T04:34:12.338Z,16.30
2022-10-08T04:36:41.478Z,16.40
2022-10-08T04:39:09.882Z,16.40
2022-10-08T04:41:39.705Z,16.40
2022-10-08T04:44:08.124Z,16.40
2022-10-08T04:46:36.662Z,16.40
2022-10-08T04:49:05.039Z,16.40
2022-10-08T04:51:33.543Z,16.30
2022-10-08T04:54:01.850Z,16.40
2022-10-08T04:56:32.102Z,16.30
2022-10-08T04:59:02.114Z,16.40
2022-10-08T05:01:31.638Z,16.40
2022-10-08T05:04:00.830Z,16.50
2022-10-08T05:06:31.355Z,16.50
2022-10-08T05:09:03.058Z,16.40
2022-10-08T05:11:33.314Z,16.40
2022-10-08T05:14:03.232Z,16.40
2022-10-08T05:16:31.742Z,16.40
2022-10-08T05:19:00.155Z,16.40
2022-10-08T05:21:30.472Z,16.40
2022-10-08T05:24:00.639Z,16.40
2022-10-08T05:26:58.046Z,16.40
2022-10-08T05:29:21.248Z,16.40
2022-10-08T05:31:49.523Z,16.30
2022-10-08T05:34:23.255Z,16.40
2022-10-08T05:36:51.717Z,16.40
2022-10-08T05:39:20.260Z,16.30
2022-10-08T05:41:51.902Z,16.40
2022-10-08T05:44:21.794Z,16.40
2022-10-08T05:46:50.360Z,16.30
2022-10-08T05:49:21.121Z,16.30
2022-10-08T05:51:50.196Z,16.40
2022-10-08T05:54:19.929Z,16.40
2022-10-08T05:56:48.645Z,16.40
2022-10-08T05:59:18.788Z,16.40
2022-10-08T06:01:48.836Z,16.50
2022-10-08T06:04:18.505Z,16.40
2022-10-08T06:06:48.261Z,16.40
2022-10-08T06:09:19.094Z,16.40
2022-10-08T06:11:48.832Z,16.50
2022-10-08T06:14:19.144Z,16.50
2022-10-08T06:16:49.158Z,16.50
2022-10-08T06:19:18.024Z,16.50
2022-10-08T06:21:46.778Z,16.50
2022-10-08T06:24:15.622Z,16.60
2022-10-08T06:26:45.343Z,16.60
2022-10-08T06:29:16.075Z,16.60
2022-10-08T06:31:45.375Z,16.70
2022-10-08T06:34:15.098Z,16.70
2022-10-08T06:36:43.465Z,16.70
2022-10-08T06:39:13.503Z,16.80
2022-10-08T06:41:42.131Z,16.90
2022-10-08T06:44:13.092Z,16.90
2022-10-08T06:46:41.587Z,17.10
2022-10-08T06:49:11.575Z,17.00
2022-10-08T06:51:41.515Z,17.10
2022-10-08T06:54:10.003Z,17.10
2022-10-08T06:56:38.980Z,17.10
2022-10-08T06:59:07.949Z,17.20
2022-10-08T07:01:36.585Z,17.20
2022-10-08T07:04:07.188Z,17.30
2022-10-08T07:06:36.327Z,17.40
2022-10-08T07:09:07.269Z,17.50
2022-10-08T07:11:36.108Z,17.40
2022-10-08T07:14:04.755Z,17.40
2022-10-08T07:16:33.304Z,17.40
2022-10-08T07:19:02.477Z,17.40
2022-10-08T07:21:31.411Z,17.50
2022-10-08T07:24:01.862Z,17.40
2022-10-08T07:26:34.472Z,17.50
2022-10-08T07:29:05.120Z,17.50
2022-10-08T07:31:36.472Z,17.50
2022-10-08T07:34:08.470Z,17.60
2022-10-08T07:36:37.022Z,17.70
2022-10-08T07:39:07.281Z,17.80
2022-10-08T07:41:37.195Z,17.70
2022-10-08T07:44:07.635Z,17.70
2022-10-08T07:46:41.378Z,17.90
2022-10-08T07:49:11.329Z,17.90
2022-10-08T07:51:41.648Z,18.00
2022-10-08T07:54:14.321Z,18.00
2022-10-08T07:56:44.554Z,18.00
2022-10-08T07:59:15.780Z,18.10
2022-10-08T08:01:44.647Z,18.00
2022-10-08T08:04:15.914Z,18.10
2022-10-08T08:06:48.581Z,18.20
2022-10-08T08:09:18.411Z,18.20
2022-10-08T08:11:49.848Z,18.20
2022-10-08T08:14:19.828Z,18.30
2022-10-08T08:16:48.473Z,18.40
2022-10-08T08:19:17.144Z,18.50
2022-10-08T08:21:45.498Z,18.50
2022-10-08T08:24:16.778Z,18.50
2022-10-08T08:26:45.558Z,18.60
2022-10-08T08:29:16.933Z,18.70
2022-10-08T08:31:46.744Z,18.70
2022-10-08T08:34:19.283Z,18.80
2022-10-08T08:36:49.744Z,19.00
2022-10-08T08:39:20.276Z,19.10
2022-10-08T08:42:06.355Z,19.10
2022-10-08T08:44:39.290Z,19.00
2022-10-08T08:47:14.761Z,19.10
2022-10-08T08:49:45.514Z,19.10
2022-10-08T08:52:17.415Z,19.20
2022-10-08T08:54:52.140Z,19.20
2022-10-08T08:57:35.087Z,19.20
2022-10-08T09:00:18.389Z,19.20
2022-10-08T09:02:53.965Z,19.50
2022-10-08T09:05:26.078Z,19.50
2022-10-08T09:08:00.274Z,19.60
2022-10-08T09:10:39.290Z,19.60
2022-10-08T09:13:15.848Z,19.70
2022-10-08T09:15:50.306Z,19.80
2022-10-08T09:18:19.427Z,19.90
2022-10-08T09:20:48.483Z,19.90
2022-10-08T09:23:21.821Z,19.90
2022-10-08T09:25:55.699Z,19.90
2022-10-08T09:28:41.283Z,20.00
2022-10-08T09:31:22.685Z,20.10
2022-10-08T09:34:05.347Z,20.30
2022-10-08T09:36:37.247Z,20.30
2022-10-08T09:39:07.803Z,20.40
2022-10-08T09:41:36.249Z,20.40
2022-10-08T09:44:22.209Z,20.50
2022-10-08T09:47:06.376Z,20.60
2022-10-08T09:49:38.420Z,20.70
2022-10-08T09:52:16.708Z,20.70
2022-10-08T09:54:49.008Z,20.80
2022-10-08T09:57:21.311Z,20.80
2022-10-08T09:59:52.971Z,20.80
2022-10-08T10:02:34.420Z,20.80
2022-10-08T10:05:05.916Z,20.70
2022-10-08T10:07:40.702Z,20.80
2022-10-08T10:10:19.211Z,20.70
2022-10-08T10:12:55.574Z,20.90
2022-10-08T10:15:27.718Z,21.00
2022-10-08T10:18:02.253Z,21.20
2022-10-08T10:20:34.651Z,21.30
2022-10-08T10:23:08.926Z,21.40
2022-10-08T10:25:41.468Z,21.40
2022-10-08T10:28:16.377Z,21.50
2022-10-08T10:30:52.589Z,21.60
2022-10-08T10:33:26.872Z,21.70
2022-10-08T10:36:00.827Z,21.60
2022-10-08T10:38:38.488Z,21.70
2022-10-08T10:41:16.996Z,21.70
2022-10-08T10:43:49.420Z,21.50
2022-10-08T10:46:34.208Z,21.40
2022-10-08T10:49:13.785Z,21.30
2022-10-08T10:52:04.390Z,21.30
2022-10-08T10:54:47.533Z,21.30
2022-10-08T10:57:41.372Z,21.10
2022-10-08T11:00:18.228Z,21.10
2022-10-08T11:02:51.700Z,21.20
2022-10-08T11:05:24.654Z,21.30
2022-10-08T11:08:10.063Z,21.20
2022-10-08T11:10:53.364Z,21.20
2022-10-08T11:13:34.660Z,21.30
2022-10-08T11:16:15.824Z,21.60
2022-10-08T11:18:51.089Z,21.60
2022-10-08T11:21:33.891Z,21.60
2022-10-08T11:24:22.052Z,21.60
2022-10-08T11:26:58.434Z,21.70
2022-10-08T11:29:33.855Z,21.80
2022-10-08T11:32:03.616Z,21.90
2022-10-08T11:34:34.213Z,21.90
2022-10-08T11:37:14.602Z,21.80
2022-10-08T11:39:51.735Z,21.80
2022-10-08T11:42:30.307Z,21.70
2022-10-08T11:45:14.151Z,21.60
2022-10-08T11:47:51.838Z,21.60
2022-10-08T11:50:27.243Z,21.50
2022-10-08T11:53:14.278Z,21.30
2022-10-08T11:55:52.700Z,21.20
2022-10-08T11:58:25.004Z,21.20
2022-10-08T12:01:01.846Z,21.00
2022-10-08T12:03:33.948Z,21.00
2022-10-08T12:06:16.506Z,20.90
2022-10-08T12:08:58.097Z,21.00
2022-10-08T12:11:49.912Z,21.00
2022-10-08T12:14:47.660Z,21.00
2022-10-08T12:17:17.559Z,21.00
2022-10-08T12:20:19.920Z,20.90
2022-10-08T12:26:20.618Z,20.70
2022-10-08T12:28:51.759Z,20.80
2022-10-08T12:32:18.758Z,20.70
2022-10-08T12:34:59.582Z,20.70
2022-10-08T12:37:48.358Z,20.40
2022-10-08T12:40:27.609Z,20.40
2022-10-08T12:43:11.815Z,20.20
2022-10-08T12:46:02.648Z,20.10
2022-10-08T12:48:48.859Z,20.10
2022-10-08T12:51:31.937Z,20.00
2022-10-08T12:54:01.070Z,19.90
2022-10-08T12:56:31.790Z,19.80
2022-10-08T12:59:06.379Z,19.70
2022-10-08T13:01:35.796Z,19.70
2022-10-08T13:04:18.463Z,19.60
2022-10-08T13:06:47.497Z,19.60
2022-10-08T13:09:28.681Z,19.60
2022-10-08T13:12:03.216Z,19.60
2022-10-08T13:14:35.832Z,19.60
2022-10-08T13:17:06.025Z,19.60
2022-10-08T13:19:38.644Z,19.60
2022-10-08T13:22:09.655Z,19.50
2022-10-08T13:24:41.754Z,19.50
2022-10-08T13:27:27.518Z,19.40
2022-10-08T13:29:59.484Z,19.40
2022-10-08T13:32:36.134Z,19.30
2022-10-08T13:35:07.638Z,19.20
2022-10-08T13:37:39.968Z,19.10
2022-10-08T13:40:20.336Z,19.10
2022-10-08T13:42:52.111Z,19.10
2022-10-08T13:45:25.372Z,19.10
2022-10-08T13:47:58.686Z,19.00
2022-10-08T13:50:30.209Z,19.00
2022-10-08T13:53:03.839Z,19.00
2022-10-08T13:55:42.180Z,19.00
2022-10-08T13:58:16.423Z,19.00
2022-10-08T14:00:50.169Z,19.00
2022-10-08T14:03:26.033Z,18.90
2022-10-08T14:05:58.864Z,19.10
2022-10-08T14:08:33.324Z,19.00
2022-10-08T14:11:07.175Z,19.10
2022-10-08T14:13:36.510Z,19.10
2022-10-08T14:16:11.832Z,19.20
2022-10-08T14:18:41.406Z,19.20
2022-10-08T14:21:20.268Z,19.20
2022-10-08T14:24:04.631Z,19.10
2022-10-08T14:26:35.034Z,19.20
2022-10-08T14:29:04.914Z,19.20
2022-10-08T14:31:36.160Z,19.20
2022-10-08T14:34:05.489Z,19.20
2022-10-08T14:36:38.884Z,19.20
2022-10-08T14:39:08.689Z,19.30
2022-10-08T14:41:40.153Z,19.40
2022-10-08T14:44:08.903Z,19.30
2022-10-08T14:46:38.796Z,19.40
2022-10-08T14:49:09.922Z,19.40
2022-10-08T14:51:39.260Z,19.40
2022-10-08T14:54:08.635Z,19.40
2022-10-08T14:56:38.338Z,19.30
2022-10-08T14:59:07.277Z,19.30
2022-10-08T15:01:36.830Z,19.40
2022-10-08T15:04:09.022Z,19.30
2022-10-08T15:06:39.951Z,19.20
2022-10-08T15:09:11.544Z,19.30
2022-10-08T15:11:40.712Z,19.30
2022-10-08T15:14:10.191Z,19.30
2022-10-08T15:16:39.994Z,19.30
2022-10-08T15:19:10.777Z,19.20
2022-10-08T15:21:39.316Z,19.10
2022-10-08T15:24:07.889Z,19.10
2022-10-08T15:26:36.628Z,19.00
2022-10-08T15:29:05.263Z,19.10
2022-10-08T15:31:33.787Z,19.10
2022-10-08T15:38:16.250Z,19.00
2022-10-08T15:40:44.942Z,19.00
2022-10-08T15:43:13.773Z,18.90
2022-10-08T15:45:43.871Z,18.80
2022-10-08T15:48:13.109Z,18.80
2022-10-08T15:50:41.802Z,18.60
2022-10-08T15:53:10.305Z,18.70
2022-10-08T15:55:40.194Z,18.60
2022-10-08T15:58:08.499Z,18.50
2022-10-08T16:00:38.222Z,18.50
2022-10-08T16:03:07.136Z,18.40
2022-10-08T16:05:35.561Z,18.40
2022-10-08T16:08:06.029Z,18.30
2022-10-08T16:10:34.468Z,18.30
2022-10-08T16:13:05.259Z,18.30
2022-10-08T16:15:38.203Z,18.30
2022-10-08T16:18:06.962Z,18.30
2022-10-08T16:20:36.278Z,18.20
2022-10-08T16:23:05.048Z,18.20
2022-10-08T16:25:36.293Z,18.10
2022-10-08T16:28:06.410Z,18.10
2022-10-08T16:30:36.543Z,18.00
2022-10-08T16:33:05.422Z,18.00
2022-10-08T16:35:36.332Z,17.90
2022-10-08T16:38:05.071Z,17.90
2022-10-08T16:40:36.251Z,17.80
2022-10-08T16:43:06.723Z,17.70
2022-10-08T16:45:37.991Z,17.70
2022-10-08T16:48:08.333Z,17.70
2022-10-08T16:50:40.467Z,17.70
2022-10-08T16:53:13.583Z,17.50
2022-10-08T16:55:42.457Z,17.60
2022-10-08T16:58:12.298Z,17.50
2022-10-08T17:00:40.847Z,17.50
2022-10-08T17:03:09.455Z,17.40
2022-10-08T17:05:42.396Z,17.30
2022-10-08T17:08:11.626Z,17.30
2022-10-08T17:10:40.170Z,17.20
2022-10-08T17:13:08.726Z,17.10
2022-10-08T17:15:38.889Z,17.10
2022-10-08T17:18:07.745Z,17.00
2022-10-08T17:20:36.264Z,17.00
2022-10-08T17:23:05.069Z,16.90
2022-10-08T17:25:36.086Z,16.90
2022-10-08T17:28:04.656Z,16.80
2022-10-08T17:30:33.295Z,16.80
2022-10-08T17:33:02.889Z,16.70
2022-10-08T17:35:31.198Z,16.70
2022-10-08T17:37:59.916Z,16.70
2022-10-08T17:40:30.842Z,16.70
2022-10-08T17:42:59.659Z,16.50
2022-10-08T17:45:27.975Z,16.60
2022-10-08T17:47:56.720Z,16.40
2022-10-08T17:50:27.175Z,16.50
2022-10-08T17:52:55.888Z,16.40
2022-10-08T17:55:24.455Z,16.40
2022-10-08T17:57:52.953Z,16.30
2022-10-08T18:00:21.385Z,16.40
2022-10-08T18:02:51.141Z,16.30
2022-10-08T18:05:20.470Z,16.40
2022-10-08T18:07:50.820Z,16.30
2022-10-08T18:10:19.437Z,16.20
2022-10-08T18:12:48.034Z,16.20
2022-10-08T18:15:17.061Z,16.20
2022-10-08T18:17:45.403Z,16.10
2022-10-08T18:20:16.735Z,16.10
2022-10-08T18:22:45.348Z,16.10
2022-10-08T18:25:15.349Z,16.00
2022-10-08T18:27:43.747Z,16.00
2022-10-08T18:30:13.204Z,15.90
2022-10-08T18:32:41.635Z,15.90
2022-10-08T18:35:11.602Z,15.80
2022-10-08T18:37:40.668Z,15.90
2022-10-08T18:40:09.870Z,15.90
2022-10-08T18:42:39.868Z,15.80
2022-10-08T18:45:09.761Z,15.80
2022-10-08T18:47:38.255Z,15.80
2022-10-08T18:50:07.924Z,15.70
2022-10-08T18:52:36.884Z,15.70
2022-10-08T18:55:06.010Z,15.70
2022-10-08T18:57:34.795Z,15.70
2022-10-08T19:00:05.862Z,15.60
2022-10-08T19:02:34.355Z,15.70
2022-10-08T19:05:03.996Z,15.70
2022-10-08T19:07:32.480Z,15.50
2022-10-08T19:10:01.452Z,15.60
2022-10-08T19:12:30.395Z,15.60
2022-10-08T19:14:59.495Z,15.50
2022-10-08T19:17:29.348Z,15.50
2022-10-08T19:19:57.866Z,15.50
2022-10-08T19:22:26.490Z,15.50
2022-10-08T19:24:55.124Z,15.50
2022-10-08T19:27:24.781Z,15.40
2022-10-08T19:29:53.128Z,15.40
2022-10-08T19:32:22.249Z,15.40
2022-10-08T19:34:52.052Z,15.30
2022-10-08T19:37:20.384Z,15.30
2022-10-08T19:39:49.175Z,15.30
2022-10-08T19:42:17.767Z,15.30
2022-10-08T19:44:46.344Z,15.30
2022-10-08T19:47:14.910Z,15.30
2022-10-08T19:49:43.662Z,15.20
2022-10-08T19:52:13.504Z,15.10
2022-10-08T19:54:42.834Z,15.10
2022-10-08T19:57:11.147Z,15.10
2022-10-08T19:59:39.741Z,15.10
2022-10-08T20:02:08.343Z,15.10
2022-10-08T20:04:37.297Z,15.20
2022-10-08T20:07:06.015Z,15.10
2022-10-08T20:09:36.384Z,15.00
2022-10-08T20:12:05.158Z,15.00
2022-10-08T20:14:34.745Z,15.00
2022-10-08T20:17:03.737Z,15.00
2022-10-08T20:19:32.399Z,14.90
2022-10-08T20:22:01.093Z,14.90
2022-10-08T20:24:30.077Z,14.90
2022-10-08T20:27:00.421Z,15.00
2022-10-08T20:29:31.125Z,15.00
2022-10-08T20:32:00.824Z,14.90
2022-10-08T20:34:31.730Z,14.90
2022-10-08T20:37:02.544Z,14.80
2022-10-08T20:39:31.464Z,14.80
2022-10-08T20:42:01.830Z,14.70
2022-10-08T20:44:30.628Z,14.80
2022-10-08T20:47:00.574Z,14.80
2022-10-08T20:49:30.831Z,14.70
2022-10-08T20:51:59.517Z,14.70
2022-10-08T20:54:28.038Z,14.70
2022-10-08T20:56:57.771Z,14.70
2022-10-08T20:59:28.051Z,14.70
2022-10-08T21:01:57.111Z,14.70
2022-10-08T21:04:26.072Z,14.70
2022-10-08T21:06:54.642Z,14.70
2022-10-08T21:09:23.364Z,14.70
2022-10-08T21:11:53.681Z,14.70
2022-10-08T21:14:23.785Z,14.70
2022-10-08T21:16:54.153Z,14.70
2022-10-08T21:19:23.296Z,14.60
2022-10-08T21:21:52.168Z,14.60
2022-10-08T21:24:20.827Z,14.50
2022-10-08T21:26:50.948Z,14.50
2022-10-08T21:29:19.417Z,14.60
2022-10-08T21:31:47.756Z,14.50
2022-10-08T21:34:17.668Z,14.50
2022-10-08T21:36:45.996Z,14.40
2022-10-08T21:39:17.777Z,14.40
2022-10-08T21:41:47.449Z,14.40
2022-10-08T21:44:16.288Z,14.50
2022-10-08T21:46:45.316Z,14.30
2022-10-08T21:49:16.274Z,14.40
2022-10-08T21:51:46.553Z,14.40
2022-10-08T21:54:16.560Z,14.30
2022-10-08T21:56:46.078Z,14.30
2022-10-08T21:59:16.438Z,14.30
2022-10-08T22:01:47.655Z,14.30
2022-10-08T22:04:18.602Z,14.30
2022-10-08T22:06:51.585Z,14.20
2022-10-08T22:09:22.329Z,14.20
2022-10-08T22:11:51.894Z,14.20
2022-10-08T22:14:21.218Z,14.20
2022-10-08T22:16:49.691Z,14.20
2022-10-08T22:19:18.950Z,14.10
2022-10-08T22:21:48.089Z,14.20
2022-10-08T22:24:19.492Z,14.10
2022-10-08T22:26:50.118Z,14.00
2022-10-08T22:29:20.369Z,14.10
2022-10-08T22:31:49.397Z,13.90
2022-10-08T22:34:19.507Z,14.00
2022-10-08T22:36:48.681Z,14.00
2022-10-08T22:39:18.340Z,14.00
2022-10-08T22:41:46.797Z,14.00
2022-10-08T22:44:15.289Z,13.90
2022-10-08T22:46:43.945Z,14.00
2022-10-08T22:49:13.342Z,13.80
2022-10-08T22:51:44.131Z,13.90
2022-10-08T22:54:12.749Z,13.90
2022-10-08T22:56:43.442Z,13.90
2022-10-08T22:59:12.242Z,13.80
2022-10-08T23:01:41.384Z,13.90
2022-10-08T23:04:10.108Z,13.80
2022-10-08T23:06:38.773Z,13.80
2022-10-08T23:09:09.592Z,13.70
2022-10-08T23:11:38.420Z,13.80
2022-10-08T23:14:08.711Z,13.70
2022-10-08T23:16:37.393Z,13.80
2022-10-08T23:19:07.635Z,13.70
2022-10-08T23:21:38.919Z,13.70
2022-10-08T23:24:07.523Z,13.70
2022-10-08T23:26:37.147Z,13.60
2022-10-08T23:29:06.454Z,13.60
2022-10-08T23:31:38.485Z,13.60
2022-10-08T23:34:10.066Z,13.70
2022-10-08T23:36:40.581Z,13.60
2022-10-08T23:39:11.692Z,13.60
2022-10-08T23:41:40.307Z,13.60
2022-10-08T23:44:09.425Z,13.60
2022-10-08T23:46:39.792Z,13.50
2022-10-08T23:49:09.089Z,13.60
2022-10-08T23:51:37.634Z,13.60
2022-10-08T23:54:07.013Z,13.50
2022-10-08T23:56:35.463Z,13.60
2022-10-08T23:59:04.298Z,13.50
